createdAt,value
2022-10-05T00:01:19.976Z,7.22
2022-10-05T00:03:47.975Z,7.00
2022-10-05T00:06:17.724Z,6.25
2022-10-05T00:11:15.460Z,6.00
2022-10-05T00:13:43.587Z,6.82
2022-10-05T00:16:17.098Z,6.28
2022-10-05T00:18:47.636Z,6.28
2022-10-05T00:21:21.848Z,6.40
2022-10-05T00:23:50.365Z,6.45
2022-10-05T00:26:21.597Z,6.05
2022-10-05T00:28:50.142Z,6.13
2022-10-05T00:31:20.838Z,7.10
2022-10-05T00:33:49.755Z,6.25
2022-10-05T00:36:20.089Z,6.35
2022-10-05T00:38:48.337Z,5.85
2022-10-05T00:41:22.077Z,6.25
2022-10-05T00:44:04.216Z,6.43
2022-10-05T00:46:40.990Z,6.32
2022-10-05T00:49:18.944Z,6.47
2022-10-05T00:51:57.589Z,6.07
2022-10-05T00:54:33.294Z,6.20
2022-10-05T00:57:19.048Z,6.95
2022-10-05T00:59:59.039Z,6.88
2022-10-05T01:02:36.932Z,7.07
2022-10-05T01:05:11.076Z,6.32
2022-10-05T01:07:48.280Z,6.97
2022-10-05T01:10:27.013Z,6.85
2022-10-05T01:13:06.496Z,5.70
2022-10-05T01:15:39.730Z,6.32
2022-10-05T01:18:16.124Z,6.47
2022-10-05T01:20:54.692Z,5.97
2022-10-05T01:24:07.447Z,5.88
2022-10-05T01:26:51.196Z,6.47
2022-10-05T01:29:24.964Z,6.45
2022-10-05T01:32:00.578Z,5.60
2022-10-05T01:34:36.108Z,6.65
2022-10-05T01:37:11.344Z,6.05
2022-10-05T01:39:47.587Z,6.90
2022-10-05T01:42:37.377Z,6.53
2022-10-05T01:45:11.572Z,6.32
2022-10-05T01:47:45.674Z,6.55
2022-10-05T01:50:20.295Z,6.50
2022-10-05T01:52:57.891Z,6.07
2022-10-05T01:55:34.121Z,5.82
2022-10-05T01:58:10.910Z,6.30
2022-10-05T02:00:46.761Z,4.95
2022-10-05T02:03:19.368Z,5.60
2022-10-05T02:05:53.835Z,6.13
2022-10-05T02:08:27.486Z,6.22
2022-10-05T02:11:01.840Z,5.53
2022-10-05T02:13:34.927Z,5.30
2022-10-05T02:16:08.269Z,5.35
2022-10-05T02:18:41.453Z,4.97
2022-10-05T02:21:09.924Z,5.22
2022-10-05T02:23:40.535Z,5.53
2022-10-05T02:26:12.161Z,5.18
2022-10-05T02:28:45.263Z,5.40
2022-10-05T02:31:18.139Z,5.20
2022-10-05T02:33:46.176Z,5.63
2022-10-05T02:36:17.104Z,5.10
2022-10-05T02:38:55.564Z,5.35
2022-10-05T02:41:34.662Z,6.53
2022-10-05T02:44:11.604Z,4.90
2022-10-05T02:46:48.008Z,5.03
2022-10-05T02:49:25.292Z,5.63
2022-10-05T02:51:59.096Z,5.53
2022-10-05T02:54:43.026Z,5.80
2022-10-05T02:57:20.987Z,4.63
2022-10-05T02:59:55.082Z,5.13
2022-10-05T03:02:30.568Z,4.80
2022-10-05T03:05:09.002Z,5.70
2022-10-05T03:07:42.782Z,4.68
2022-10-05T03:10:14.091Z,4.63
2022-10-05T03:12:52.526Z,5.20
2022-10-05T03:15:31.547Z,5.15
2022-10-05T03:18:09.617Z,4.38
2022-10-05T03:20:45.026Z,4.75
2022-10-05T03:23:26.243Z,4.30
2022-10-05T03:26:10.281Z,4.35
2022-10-05T03:28:50.793Z,4.57
2022-10-05T03:31:26.700Z,4.47
2022-10-05T03:34:01.107Z,4.97
2022-10-05T03:36:36.588Z,5.00
2022-10-05T03:39:11.544Z,4.00
2022-10-05T03:41:48.312Z,3.97
2022-10-05T03:44:33.579Z,4.38
2022-10-05T03:47:12.081Z,4.13
2022-10-05T03:49:53.622Z,3.97
2022-10-05T03:52:25.417Z,4.63
2022-10-05T03:54:58.900Z,4.60
2022-10-05T03:57:30.092Z,3.85
2022-10-05T04:00:05.080Z,4.30
2022-10-05T04:02:37.847Z,4.32
2022-10-05T04:05:17.025Z,4.50
2022-10-05T04:07:48.393Z,4.55
2022-10-05T04:10:20.288Z,4.20
2022-10-05T04:12:53.384Z,4.30
2022-10-05T04:15:28.274Z,4.65
2022-10-05T04:18:01.649Z,6.00
2022-10-05T04:20:37.364Z,5.07
2022-10-05T04:23:22.424Z,4.38
2022-10-05T04:25:54.879Z,4.75
2022-10-05T04:28:32.153Z,4.35
2022-10-05T04:31:04.717Z,4.20
2022-10-05T04:33:33.245Z,4.78
2022-10-05T04:36:17.835Z,4.80
2022-10-05T04:38:55.380Z,4.00
2022-10-05T04:41:41.797Z,4.10
2022-10-05T04:44:24.171Z,4.20
2022-10-05T04:47:17.985Z,6.32
2022-10-05T04:50:03.689Z,4.40
2022-10-05T04:52:40.604Z,4.03
2022-10-05T04:55:20.520Z,4.80
2022-10-05T04:57:56.013Z,4.97
2022-10-05T05:00:25.826Z,3.95
2022-10-05T05:03:35.349Z,4.28
2022-10-05T05:09:17.993Z,3.97
2022-10-05T05:12:13.507Z,4.38
2022-10-05T05:15:14.496Z,4.82
2022-10-05T05:17:54.746Z,6.13
2022-10-05T05:20:28.979Z,7.15
2022-10-05T05:23:12.404Z,6.15
2022-10-05T05:25:49.177Z,5.57
2022-10-05T05:28:26.454Z,5.82
2022-10-05T05:31:07.523Z,4.95
2022-10-05T05:33:45.017Z,4.20
2022-10-05T05:36:33.028Z,4.57
2022-10-05T05:39:22.896Z,4.70
2022-10-05T05:42:01.071Z,5.70
2022-10-05T05:44:34.193Z,6.30
2022-10-05T05:47:14.483Z,5.65
2022-10-05T05:49:56.663Z,4.75
2022-10-05T05:52:31.401Z,5.07
2022-10-05T05:55:03.449Z,5.82
2022-10-05T05:57:38.973Z,6.53
2022-10-05T06:00:17.588Z,6.35
2022-10-05T06:02:51.837Z,5.18
2022-10-05T06:05:29.632Z,5.93
2022-10-05T06:07:59.756Z,5.82
2022-10-05T06:10:35.791Z,5.13
2022-10-05T06:13:11.529Z,6.00
2022-10-05T06:15:43.502Z,5.38
2022-10-05T06:18:15.449Z,6.05
2022-10-05T06:20:50.230Z,6.90
2022-10-05T06:23:22.168Z,6.55
2022-10-05T06:26:07.019Z,5.88
2022-10-05T06:28:39.420Z,5.75
2022-10-05T06:33:49.068Z,5.82
2022-10-05T06:36:35.916Z,5.90
2022-10-05T06:39:25.016Z,5.50
2022-10-05T06:42:07.961Z,6.00
2022-10-05T06:44:44.654Z,5.95
2022-10-05T06:47:19.043Z,6.00
2022-10-05T06:49:54.262Z,5.55
2022-10-05T06:52:30.304Z,6.00
2022-10-05T06:55:15.141Z,5.57
2022-10-05T06:57:54.615Z,4.93
2022-10-05T07:02:59.001Z,4.88
2022-10-05T07:05:50.982Z,5.35
2022-10-05T07:08:28.386Z,5.22
2022-10-05T07:11:06.002Z,4.90
2022-10-05T07:14:02.206Z,4.43
2022-10-05T07:16:41.268Z,4.38
2022-10-05T07:19:20.655Z,4.85
2022-10-05T07:22:01.628Z,4.10
2022-10-05T07:24:34.080Z,4.10
2022-10-05T07:27:17.340Z,4.55
2022-10-05T07:29:52.936Z,4.43
2022-10-05T07:32:36.389Z,4.30
2022-10-05T07:35:32.824Z,3.92
2022-10-05T07:38:05.527Z,4.53
2022-10-05T07:40:39.186Z,4.35
2022-10-05T07:43:40.114Z,4.13
2022-10-05T07:46:23.239Z,4.60
2022-10-05T07:49:03.104Z,5.07
2022-10-05T07:51:37.293Z,4.70
2022-10-05T07:54:16.839Z,4.88
2022-10-05T07:59:21.979Z,4.70
2022-10-05T08:01:55.390Z,4.53
2022-10-05T08:04:31.697Z,4.30
2022-10-05T08:07:04.201Z,4.50
2022-10-05T08:09:40.189Z,3.45
2022-10-05T08:12:25.902Z,3.38
2022-10-05T08:14:58.096Z,3.63
2022-10-05T08:17:37.076Z,3.42
2022-10-05T08:20:23.734Z,3.30
2022-10-05T08:22:57.665Z,4.47
2022-10-05T08:25:32.776Z,4.50
2022-10-05T08:28:09.434Z,4.45
2022-10-05T08:30:52.762Z,3.88
2022-10-05T08:33:22.995Z,3.03
2022-10-05T08:36:00.377Z,3.38
2022-10-05T08:38:34.017Z,3.40
2022-10-05T08:41:23.338Z,2.88
2022-10-05T08:44:26.652Z,2.90
2022-10-05T08:47:37.204Z,3.10
2022-10-05T08:50:22.817Z,2.90
2022-10-05T08:53:21.617Z,2.80
2022-10-05T08:56:03.355Z,2.75
2022-10-05T08:59:01.420Z,2.78
2022-10-05T09:01:39.130Z,2.92
2022-10-05T09:04:36.377Z,2.63
2022-10-05T09:07:21.914Z,2.40
2022-10-05T09:10:26.518Z,2.40
2022-10-05T09:13:31.377Z,2.05
2022-10-05T09:16:36.521Z,2.63
2022-10-05T09:19:29.982Z,2.55
2022-10-05T09:22:00.534Z,2.20
2022-10-05T09:24:31.471Z,2.17
2022-10-05T09:27:09.720Z,2.40
2022-10-05T09:30:11.614Z,2.33
2022-10-05T09:33:13.600Z,2.30
2022-10-05T09:36:17.940Z,2.67
2022-10-05T09:39:14.291Z,2.55
2022-10-05T09:41:58.905Z,2.35
2022-10-05T09:45:05.507Z,2.00
2022-10-05T09:47:59.747Z,1.80
2022-10-05T09:51:00.688Z,2.30
2022-10-05T09:53:53.441Z,2.13
2022-10-05T09:56:45.526Z,2.00
2022-10-05T09:59:53.302Z,2.13
2022-10-05T10:02:55.714Z,2.00
2022-10-05T10:05:41.489Z,2.33
2022-10-05T10:08:26.158Z,2.05
2022-10-05T10:11:17.507Z,2.10
2022-10-05T10:14:18.263Z,2.10
2022-10-05T10:17:09.987Z,1.95
2022-10-05T10:20:10.104Z,1.98
2022-10-05T10:23:09.580Z,1.60
2022-10-05T10:25:58.441Z,2.20
2022-10-05T10:28:52.104Z,1.98
2022-10-05T10:31:36.097Z,1.55
2022-10-05T10:34:20.692Z,1.95
2022-10-05T10:37:12.437Z,2.05
2022-10-05T10:39:59.621Z,1.73
2022-10-05T10:42:42.395Z,2.15
2022-10-05T10:45:38.148Z,1.92
2022-10-05T10:48:11.881Z,1.77
2022-10-05T10:51:15.382Z,2.00
2022-10-05T10:54:25.063Z,1.50
2022-10-05T10:56:57.989Z,2.28
2022-10-05T11:00:08.692Z,1.75
2022-10-05T11:02:57.286Z,1.52
2022-10-05T11:05:48.796Z,1.58
2022-10-05T11:08:54.608Z,1.33
2022-10-05T11:11:58.553Z,1.33
2022-10-05T11:14:49.369Z,0.95
2022-10-05T11:17:52.199Z,1.60
2022-10-05T11:20:53.140Z,1.55
2022-10-05T11:23:58.572Z,1.50
2022-10-05T11:26:41.545Z,1.52
2022-10-05T11:29:38.544Z,1.88
2022-10-05T11:32:42.946Z,1.77
2022-10-05T11:35:49.806Z,1.77
2022-10-05T11:38:39.519Z,1.63
2022-10-05T11:41:30.892Z,1.30
2022-10-05T11:44:38.654Z,1.23
2022-10-05T11:47:14.999Z,1.10
2022-10-05T11:49:49.485Z,1.75
2022-10-05T11:52:23.307Z,1.88
2022-10-05T11:55:11.671Z,1.83
2022-10-05T12:00:18.981Z,1.25
2022-10-05T12:03:03.415Z,1.00
2022-10-05T12:05:43.139Z,1.38
2022-10-05T12:08:26.752Z,1.27
2022-10-05T12:11:06.259Z,1.10
2022-10-05T12:13:41.548Z,1.20
2022-10-05T12:16:15.492Z,1.30
2022-10-05T12:18:50.046Z,1.98
2022-10-05T12:21:30.408Z,1.60
2022-10-05T12:24:03.175Z,1.25
2022-10-05T12:26:36.412Z,1.00
2022-10-05T12:29:13.391Z,1.20
2022-10-05T12:31:50.577Z,1.23
2022-10-05T12:34:30.415Z,1.45
2022-10-05T12:37:07.402Z,1.40
2022-10-05T12:39:44.511Z,2.15
2022-10-05T12:42:23.739Z,1.40
2022-10-05T12:45:09.008Z,1.55
2022-10-05T12:47:53.803Z,1.10
2022-10-05T12:50:27.086Z,1.55
2022-10-05T12:53:20.787Z,1.33
2022-10-05T12:55:58.430Z,1.20
2022-10-05T12:58:35.285Z,1.30
2022-10-05T13:01:10.875Z,1.20
2022-10-05T13:03:42.745Z,1.13
2022-10-05T13:06:22.084Z,1.10
2022-10-05T13:08:58.146Z,1.20
2022-10-05T13:11:35.066Z,1.30
2022-10-05T13:14:16.401Z,1.83
2022-10-05T13:16:55.143Z,1.40
2022-10-05T13:19:39.139Z,1.10
2022-10-05T13:22:28.804Z,1.45
2022-10-05T13:25:08.588Z,1.35
2022-10-05T13:27:41.925Z,1.27
2022-10-05T13:30:17.014Z,1.23
2022-10-05T13:32:47.948Z,0.95
2022-10-05T13:35:31.149Z,1.30
2022-10-05T13:38:07.253Z,1.20
2022-10-05T13:40:46.712Z,1.35
2022-10-05T13:43:21.613Z,1.40
2022-10-05T13:45:56.574Z,1.40
2022-10-05T13:48:47.693Z,1.40
2022-10-05T13:51:21.098Z,1.75
2022-10-05T13:53:55.962Z,1.70
2022-10-05T13:56:31.145Z,1.50
2022-10-05T13:59:11.933Z,1.70
2022-10-05T14:01:43.427Z,1.45
2022-10-05T14:04:18.011Z,1.73
2022-10-05T14:06:47.780Z,1.65
2022-10-05T14:09:29.487Z,1.45
2022-10-05T14:12:15.188Z,1.48
2022-10-05T14:14:49.618Z,1.42
2022-10-05T14:17:32.874Z,1.35
2022-10-05T14:20:02.933Z,1.48
2022-10-05T14:22:31.012Z,1.30
2022-10-05T14:25:17.102Z,1.30
2022-10-05T14:28:02.047Z,1.63
2022-10-05T14:30:31.499Z,1.50
2022-10-05T14:33:13.825Z,1.75
2022-10-05T14:35:50.366Z,1.50
2022-10-05T14:38:21.965Z,1.60
2022-10-05T14:41:06.060Z,1.95
2022-10-05T14:43:36.123Z,1.75
2022-10-05T14:46:25.325Z,2.13
2022-10-05T14:49:22.174Z,1.90
2022-10-05T14:51:51.360Z,2.90
2022-10-05T14:54:35.601Z,2.92
2022-10-05T14:57:11.143Z,2.30
2022-10-05T15:00:08.109Z,1.60
2022-10-05T15:02:52.352Z,1.60
2022-10-05T15:05:31.186Z,1.90
2022-10-05T15:08:13.164Z,1.85
2022-10-05T15:10:44.065Z,2.10
2022-10-05T15:13:16.851Z,1.92
2022-10-05T15:15:51.964Z,1.95
2022-10-05T15:18:34.851Z,1.90
2022-10-05T15:21:23.793Z,1.95
2022-10-05T15:23:57.319Z,2.15
2022-10-05T15:26:36.148Z,2.40
2022-10-05T15:29:14.595Z,2.92
2022-10-05T15:31:52.456Z,2.60
2022-10-05T15:34:29.402Z,3.28
2022-10-05T15:37:07.895Z,2.85
2022-10-05T15:39:45.095Z,2.95
2022-10-05T15:42:17.200Z,2.90
2022-10-05T15:44:56.275Z,2.70
2022-10-05T15:47:34.210Z,3.10
2022-10-05T15:50:14.157Z,2.97
2022-10-05T15:52:47.156Z,3.33
2022-10-05T15:55:26.153Z,3.08
2022-10-05T15:58:08.824Z,4.00
2022-10-05T16:00:45.997Z,3.45
2022-10-05T16:03:23.479Z,3.33
2022-10-05T16:06:12.707Z,3.55
2022-10-05T16:11:43.827Z,3.78
2022-10-05T16:14:22.668Z,4.00
2022-10-05T16:17:02.830Z,5.72
2022-10-05T16:19:39.757Z,4.30
2022-10-05T16:22:22.207Z,3.95
2022-10-05T16:25:03.603Z,4.10
2022-10-05T16:27:50.890Z,4.90
2022-10-05T16:30:22.111Z,4.80
2022-10-05T16:32:59.356Z,4.85
2022-10-05T16:35:38.569Z,5.25
2022-10-05T16:38:19.281Z,6.00
2022-10-05T16:41:01.039Z,7.78
2022-10-05T16:43:40.040Z,11.52
2022-10-05T16:46:20.893Z,5.90
2022-10-05T16:48:57.461Z,6.18
2022-10-05T16:51:37.922Z,6.35
2022-10-05T16:54:18.203Z,5.53
2022-10-05T16:56:52.053Z,5.50
2022-10-05T16:59:48.706Z,5.60
2022-10-05T17:02:26.065Z,5.93
2022-10-05T17:05:08.522Z,6.38
2022-10-05T17:07:55.696Z,5.50
2022-10-05T17:10:46.571Z,5.68
2022-10-05T17:13:37.637Z,6.07
2022-10-05T17:16:15.224Z,6.05
2022-10-05T17:19:03.952Z,5.75
2022-10-05T17:21:38.405Z,6.05
2022-10-05T17:24:35.329Z,5.75
2022-10-05T17:27:19.699Z,4.63
2022-10-05T17:29:51.785Z,4.97
2022-10-05T17:32:41.209Z,4.90
2022-10-05T17:38:22.991Z,4.75
2022-10-05T17:41:16.027Z,5.55
2022-10-05T17:44:24.801Z,5.70
2022-10-05T17:46:55.108Z,6.40
2022-10-05T17:49:46.209Z,6.22
2022-10-05T17:52:39.931Z,5.05
2022-10-05T17:55:38.300Z,5.68
2022-10-05T17:58:43.761Z,5.50
2022-10-05T18:01:19.838Z,5.80
2022-10-05T18:03:50.513Z,5.00
2022-10-05T18:06:37.525Z,5.05
2022-10-05T18:09:30.745Z,5.00
2022-10-05T18:12:37.632Z,4.93
2022-10-05T18:15:31.147Z,5.38
2022-10-05T18:18:32.808Z,5.93
2022-10-05T18:21:20.347Z,6.57
2022-10-05T18:24:02.162Z,6.55
2022-10-05T18:26:38.685Z,6.28
2022-10-05T18:29:41.064Z,6.60
2022-10-05T18:32:20.429Z,6.85
2022-10-05T18:34:56.177Z,8.20
2022-10-05T18:37:36.691Z,6.60
2022-10-05T18:40:23.442Z,6.57
2022-10-05T18:43:01.132Z,6.65
2022-10-05T18:45:38.112Z,6.78
2022-10-05T18:48:21.101Z,7.57
2022-10-05T18:50:55.767Z,7.03
2022-10-05T18:53:33.400Z,6.47
2022-10-05T18:56:05.433Z,6.50
2022-10-05T18:58:42.633Z,6.57
2022-10-05T19:01:56.691Z,6.38
2022-10-05T19:04:32.033Z,6.50
2022-10-05T19:07:13.974Z,6.80
2022-10-05T19:09:58.088Z,5.32
2022-10-05T19:12:40.624Z,5.55
2022-10-05T19:15:18.112Z,6.05
2022-10-05T19:18:12.373Z,5.45
2022-10-05T19:20:48.132Z,4.68
2022-10-05T19:23:40.263Z,5.32
2022-10-05T19:26:16.230Z,5.38
2022-10-05T19:28:58.831Z,5.32
2022-10-05T19:31:33.503Z,6.00
2022-10-05T19:34:16.387Z,5.50
2022-10-05T19:36:55.369Z,5.20
2022-10-05T19:39:34.481Z,6.13
2022-10-05T19:42:18.484Z,7.57
2022-10-05T19:44:59.538Z,6.95
2022-10-05T19:47:41.072Z,7.22
2022-10-05T19:50:26.144Z,9.70
2022-10-05T19:53:02.297Z,9.32
2022-10-05T19:55:35.839Z,9.07
2022-10-05T19:58:19.290Z,7.90
2022-10-05T20:00:57.863Z,7.65
2022-10-05T20:03:29.120Z,9.00
2022-10-05T20:05:59.175Z,10.50
2022-10-05T20:08:31.841Z,13.52
2022-10-05T20:11:08.727Z,15.32
2022-10-05T20:13:39.955Z,15.57
2022-10-05T20:16:27.272Z,9.95
2022-10-05T20:19:13.064Z,11.93
2022-10-05T20:21:47.271Z,9.43
2022-10-05T20:24:17.512Z,7.63
2022-10-05T20:27:05.468Z,7.70
2022-10-05T20:29:36.915Z,7.68
2022-10-05T20:32:08.625Z,7.93
2022-10-05T20:34:37.635Z,9.35
2022-10-05T20:37:05.601Z,8.05
2022-10-05T20:39:33.589Z,15.05
2022-10-05T20:42:01.558Z,14.95
2022-10-05T20:44:29.568Z,14.50
2022-10-05T20:47:01.144Z,9.68
2022-10-05T20:49:30.910Z,12.18
2022-10-05T20:51:59.498Z,12.82
2022-10-05T20:54:28.303Z,11.80
2022-10-05T20:56:56.998Z,11.63
2022-10-05T20:59:25.962Z,9.87
2022-10-05T21:01:55.592Z,10.93
2022-10-05T21:04:30.089Z,13.02
2022-10-05T21:07:02.656Z,16.58
2022-10-05T21:09:31.053Z,13.20
2022-10-05T21:11:59.435Z,13.30
2022-10-05T21:14:30.397Z,18.23
2022-10-05T21:16:58.428Z,19.02
2022-10-05T21:19:28.023Z,18.65
2022-10-05T21:24:26.215Z,15.95
2022-10-05T21:26:57.557Z,8.93
2022-10-05T21:29:25.704Z,8.25
2022-10-05T21:31:53.694Z,7.50
2022-10-05T21:34:21.796Z,7.32
2022-10-05T21:36:51.270Z,6.68
2022-10-05T21:39:19.372Z,5.28
2022-10-05T21:41:49.809Z,5.10
2022-10-05T21:44:18.262Z,4.55
2022-10-05T21:46:46.386Z,4.07
2022-10-05T21:49:17.528Z,3.22
2022-10-05T21:51:48.354Z,3.65
2022-10-05T21:54:20.795Z,3.43
2022-10-05T21:56:51.938Z,3.13
2022-10-05T21:59:23.203Z,3.30
2022-10-05T22:01:51.896Z,3.15
2022-10-05T22:04:20.343Z,3.05
2022-10-05T22:06:48.973Z,3.40
2022-10-05T22:09:18.424Z,3.30
2022-10-05T22:11:48.833Z,2.78
2022-10-05T22:14:17.079Z,3.13
2022-10-05T22:16:45.846Z,3.20
2022-10-05T22:19:17.430Z,3.50
2022-10-05T22:21:45.661Z,3.25
2022-10-05T22:24:13.698Z,3.28
2022-10-05T22:26:46.876Z,3.03
2022-10-05T22:29:17.197Z,3.22
2022-10-05T22:31:48.412Z,2.60
2022-10-05T22:34:16.514Z,3.00
2022-10-05T22:36:45.832Z,3.05
2022-10-05T22:39:13.961Z,3.25
2022-10-05T22:41:43.382Z,3.22
2022-10-05T22:44:11.505Z,2.67
2022-10-05T22:46:39.737Z,3.25
2022-10-05T22:49:07.867Z,2.88
2022-10-05T22:51:36.172Z,2.80
2022-10-05T22:54:04.513Z,3.03
2022-10-05T22:56:32.590Z,3.33
2022-10-05T22:59:02.194Z,2.85
2022-10-05T23:03:58.242Z,3.10
2022-10-05T23:06:26.590Z,2.85
2022-10-05T23:08:55.405Z,3.17
2022-10-05T23:11:25.941Z,2.80
2022-10-05T23:13:55.747Z,3.22
2022-10-05T23:16:27.359Z,3.10
2022-10-05T23:18:56.442Z,2.50
2022-10-05T23:21:26.305Z,2.38
2022-10-05T23:23:54.667Z,2.80
2022-10-05T23:26:24.576Z,2.85
2022-10-05T23:28:52.869Z,2.97
2022-10-05T23:31:22.746Z,2.95
2022-10-05T23:33:52.522Z,2.53
2022-10-05T23:36:22.247Z,2.90
2022-10-05T23:38:50.764Z,3.10
2022-10-05T23:41:19.626Z,3.10
2022-10-05T23:43:47.803Z,2.58
2022-10-05T23:46:17.518Z,3.30
2022-10-05T23:48:45.705Z,2.90
2022-10-05T23:51:15.872Z,3.03
2022-10-05T23:53:44.375Z,3.70
2022-10-05T23:56:12.981Z,6.28
2022-10-05T23:58:41.673Z,6.70
